sensor_id;sensor_type;location;lat;lon;timestamp;temperature;humidity
8332;DHT22;4203;48.144;14.118;2023-04-07T00:01:19;-0.80;99.90
8332;DHT22;4203;48.144;14.118;2023-04-07T00:03:47;-0.80;99.90
8332;DHT22;4203;48.144;14.118;2023-04-07T00:06:14;-0.80;99.90
8332;DHT22;4203;48.144;14.118;2023-04-07T00:08:41;-0.80;99.90
8332;DHT22;4203;48.144;14.118;2023-04-07T00:11:08;-0.80;99.90
8332;DHT22;4203;48.144;14.118;2023-04-07T00:13:35;-0.80;99.90
8332;DHT22;4203;48.144;14.118;2023-04-07T00:16:04;-0.80;99.90
8332;DHT22;4203;48.144;14.118;2023-04-07T00:18:31;-0.80;99.90
8332;DHT22;4203;48.144;14.118;2023-04-07T00:20:58;-0.80;99.90
8332;DHT22;4203;48.144;14.118;2023-04-07T00:23:25;-0.80;99.90
8332;DHT22;4203;48.144;14.118;2023-04-07T00:25:52;-0.80;99.90
8332;DHT22;4203;48.144;14.118;2023-04-07T00:28:19;-0.90;99.90
8332;DHT22;4203;48.144;14.118;2023-04-07T00:30:46;-0.90;99.90
8332;DHT22;4203;48.144;14.118;2023-04-07T00:33:15;-0.90;99.90
8332;DHT22;4203;48.144;14.118;2023-04-07T00:35:42;-0.80;99.90
8332;DHT22;4203;48.144;14.118;2023-04-07T00:38:09;-0.90;99.90
8332;DHT22;4203;48.144;14.118;2023-04-07T00:40:36;-0.90;99.90
8332;DHT22;4203;48.144;14.118;2023-04-07T00:43:03;-0.90;99.90
8332;DHT22;4203;48.144;14.118;2023-04-07T00:45:30;-0.80;99.90
8332;DHT22;4203;48.144;14.118;2023-04-07T00:47:57;-0.90;99.90
8332;DHT22;4203;48.144;14.118;2023-04-07T00:50:26;-1.00;99.90
8332;DHT22;4203;48.144;14.118;2023-04-07T00:52:53;-1.00;99.90
8332;DHT22;4203;48.144;14.118;2023-04-07T00:55:21;-1.00;99.90
8332;DHT22;4203;48.144;14.118;2023-04-07T00:57:48;-1.00;99.90
8332;DHT22;4203;48.144;14.118;2023-04-07T01:00:16;-1.10;99.90
8332;DHT22;4203;48.144;14.118;2023-04-07T01:02:50;-1.10;99.90
8332;DHT22;4203;48.144;14.118;2023-04-07T01:05:28;-1.10;99.90
8332;DHT22;4203;48.144;14.118;2023-04-07T01:08:02;-1.20;99.90
8332;DHT22;4203;48.144;14.118;2023-04-07T01:10:41;-1.30;99.90
8332;DHT22;4203;48.144;14.118;2023-04-07T01:13:20;-1.30;99.90
8332;DHT22;4203;48.144;14.118;2023-04-07T01:15:50;-1.30;99.90
8332;DHT22;4203;48.144;14.118;2023-04-07T01:18:25;-1.40;99.90
8332;DHT22;4203;48.144;14.118;2023-04-07T01:21:01;-1.40;99.90
8332;DHT22;4203;48.144;14.118;2023-04-07T01:23:41;-1.40;99.90
8332;DHT22;4203;48.144;14.118;2023-04-07T01:26:19;-1.40;99.90
8332;DHT22;4203;48.144;14.118;2023-04-07T01:31:45;-1.30;99.90
8332;DHT22;4203;48.144;14.118;2023-04-07T01:34:14;-1.30;99.90
8332;DHT22;4203;48.144;14.118;2023-04-07T01:36:43;-1.30;99.90
8332;DHT22;4203;48.144;14.118;2023-04-07T01:39:12;-1.30;99.90
8332;DHT22;4203;48.144;14.118;2023-04-07T01:41:40;-1.40;99.90
8332;DHT22;4203;48.144;14.118;2023-04-07T01:44:08;-1.40;99.90
8332;DHT22;4203;48.144;14.118;2023-04-07T01:46:35;-1.50;99.90
8332;DHT22;4203;48.144;14.118;2023-04-07T01:49:04;-1.50;99.90
8332;DHT22;4203;48.144;14.118;2023-04-07T01:51:33;-1.30;99.90
8332;DHT22;4203;48.144;14.118;2023-04-07T01:54:01;-1.30;99.90
8332;DHT22;4203;48.144;14.118;2023-04-07T01:56:28;-1.50;99.90
8332;DHT22;4203;48.144;14.118;2023-04-07T01:58:55;-1.60;99.90
8332;DHT22;4203;48.144;14.118;2023-04-07T02:01:22;-1.70;99.90
8332;DHT22;4203;48.144;14.118;2023-04-07T02:03:53;-1.70;99.90
8332;DHT22;4203;48.144;14.118;2023-04-07T02:06:29;-1.80;99.90
8332;DHT22;4203;48.144;14.118;2023-04-07T02:09:01;-1.70;99.90
8332;DHT22;4203;48.144;14.118;2023-04-07T02:11:31;-1.80;99.90
8332;DHT22;4203;48.144;14.118;2023-04-07T02:14:00;-1.80;99.90
8332;DHT22;4203;48.144;14.118;2023-04-07T02:16:29;-1.80;99.90
8332;DHT22;4203;48.144;14.118;2023-04-07T02:18:57;-1.60;99.90
8332;DHT22;4203;48.144;14.118;2023-04-07T02:21:29;-1.50;99.90
8332;DHT22;4203;48.144;14.118;2023-04-07T02:24:00;-1.50;99.90
8332;DHT22;4203;48.144;14.118;2023-04-07T02:26:27;-1.60;99.90
8332;DHT22;4203;48.144;14.118;2023-04-07T02:28:55;-1.60;99.90
8332;DHT22;4203;48.144;14.118;2023-04-07T02:31:22;-1.70;99.90
8332;DHT22;4203;48.144;14.118;2023-04-07T02:33:49;-1.70;99.90
8332;DHT22;4203;48.144;14.118;2023-04-07T02:36:16;-1.80;99.90
8332;DHT22;4203;48.144;14.118;2023-04-07T02:38:44;-1.80;99.90
8332;DHT22;4203;48.144;14.118;2023-04-07T02:41:12;-1.80;99.90
8332;DHT22;4203;48.144;14.118;2023-04-07T02:43:39;-1.80;99.90
8332;DHT22;4203;48.144;14.118;2023-04-07T02:46:06;-1.90;99.90
8332;DHT22;4203;48.144;14.118;2023-04-07T02:48:33;-1.90;99.90
8332;DHT22;4203;48.144;14.118;2023-04-07T02:51:00;-2.00;99.90
8332;DHT22;4203;48.144;14.118;2023-04-07T02:53:27;-2.00;99.90
8332;DHT22;4203;48.144;14.118;2023-04-07T02:55:55;-2.00;99.90
8332;DHT22;4203;48.144;14.118;2023-04-07T02:58:23;-2.10;99.90
8332;DHT22;4203;48.144;14.118;2023-04-07T03:00:50;-2.10;99.90
8332;DHT22;4203;48.144;14.118;2023-04-07T03:03:17;-2.00;99.90
8332;DHT22;4203;48.144;14.118;2023-04-07T03:05:44;-2.10;99.90
8332;DHT22;4203;48.144;14.118;2023-04-07T03:08:11;-2.20;99.90
8332;DHT22;4203;48.144;14.118;2023-04-07T03:10:38;-2.20;99.90
8332;DHT22;4203;48.144;14.118;2023-04-07T03:13:07;-2.20;99.90
8332;DHT22;4203;48.144;14.118;2023-04-07T03:15:34;-2.20;99.90
8332;DHT22;4203;48.144;14.118;2023-04-07T03:18:01;-2.30;99.90
8332;DHT22;4203;48.144;14.118;2023-04-07T03:20:28;-2.30;99.90
8332;DHT22;4203;48.144;14.118;2023-04-07T03:22:55;-2.30;99.90
8332;DHT22;4203;48.144;14.118;2023-04-07T03:25:24;-2.30;99.90
8332;DHT22;4203;48.144;14.118;2023-04-07T03:27:51;-2.30;99.90
8332;DHT22;4203;48.144;14.118;2023-04-07T03:30:20;-2.40;99.90
8332;DHT22;4203;48.144;14.118;2023-04-07T03:32:47;-2.40;99.90
8332;DHT22;4203;48.144;14.118;2023-04-07T03:35:14;-2.50;99.90
8332;DHT22;4203;48.144;14.118;2023-04-07T03:37:41;-2.50;99.90
8332;DHT22;4203;48.144;14.118;2023-04-07T03:40:09;-2.20;99.90
8332;DHT22;4203;48.144;14.118;2023-04-07T03:42:36;-2.30;99.90
8332;DHT22;4203;48.144;14.118;2023-04-07T03:45:04;-2.40;99.90
8332;DHT22;4203;48.144;14.118;2023-04-07T03:47:33;-2.50;99.90
8332;DHT22;4203;48.144;14.118;2023-04-07T03:50:00;-2.50;99.90
8332;DHT22;4203;48.144;14.118;2023-04-07T03:52:28;-2.60;99.90
8332;DHT22;4203;48.144;14.118;2023-04-07T03:54:55;-2.60;99.90
8332;DHT22;4203;48.144;14.118;2023-04-07T03:57:22;-2.70;99.90
8332;DHT22;4203;48.144;14.118;2023-04-07T03:59:49;-2.60;99.90
8332;DHT22;4203;48.144;14.118;2023-04-07T04:02:17;-2.60;99.90
8332;DHT22;4203;48.144;14.118;2023-04-07T04:04:45;-2.60;99.90
8332;DHT22;4203;48.144;14.118;2023-04-07T04:07:12;-2.70;99.90
8332;DHT22;4203;48.144;14.118;2023-04-07T04:09:39;-2.70;99.90
8332;DHT22;4203;48.144;14.118;2023-04-07T04:12:06;-2.70;99.90
8332;DHT22;4203;48.144;14.118;2023-04-07T04:14:34;-2.80;99.90
8332;DHT22;4203;48.144;14.118;2023-04-07T04:17:01;-2.80;99.90
8332;DHT22;4203;48.144;14.118;2023-04-07T04:19:28;-2.80;99.90
8332;DHT22;4203;48.144;14.118;2023-04-07T04:21:56;-2.80;99.90
8332;DHT22;4203;48.144;14.118;2023-04-07T04:24:24;-2.90;99.90
8332;DHT22;4203;48.144;14.118;2023-04-07T04:26:52;-2.90;99.90
8332;DHT22;4203;48.144;14.118;2023-04-07T04:29:19;-2.90;99.90
8332;DHT22;4203;48.144;14.118;2023-04-07T04:31:46;-2.90;99.90
8332;DHT22;4203;48.144;14.118;2023-04-07T04:34:14;-2.90;99.90
8332;DHT22;4203;48.144;14.118;2023-04-07T04:36:41;-3.00;99.90
8332;DHT22;4203;48.144;14.118;2023-04-07T04:39:10;-2.90;99.90
8332;DHT22;4203;48.144;14.118;2023-04-07T04:41:37;-2.90;99.90
8332;DHT22;4203;48.144;14.118;2023-04-07T04:44:05;-3.00;99.90
8332;DHT22;4203;48.144;14.118;2023-04-07T04:46:32;-3.00;99.90
8332;DHT22;4203;48.144;14.118;2023-04-07T04:48:59;-3.00;99.90
8332;DHT22;4203;48.144;14.118;2023-04-07T04:51:27;-3.00;99.90
8332;DHT22;4203;48.144;14.118;2023-04-07T04:53:54;-3.00;99.90
8332;DHT22;4203;48.144;14.118;2023-04-07T04:56:23;-3.00;99.90
8332;DHT22;4203;48.144;14.118;2023-04-07T04:58:50;-3.00;99.90
8332;DHT22;4203;48.144;14.118;2023-04-07T05:01:17;-2.90;99.90
8332;DHT22;4203;48.144;14.118;2023-04-07T05:03:45;-2.90;99.90
8332;DHT22;4203;48.144;14.118;2023-04-07T05:06:12;-3.00;99.90
8332;DHT22;4203;48.144;14.118;2023-04-07T05:08:40;-2.90;99.90
8332;DHT22;4203;48.144;14.118;2023-04-07T05:11:07;-3.00;99.90
8332;DHT22;4203;48.144;14.118;2023-04-07T05:13:38;-3.10;99.90
8332;DHT22;4203;48.144;14.118;2023-04-07T05:16:07;-3.10;99.90
8332;DHT22;4203;48.144;14.118;2023-04-07T05:18:35;-3.10;99.90
8332;DHT22;4203;48.144;14.118;2023-04-07T05:21:03;-3.10;99.90
8332;DHT22;4203;48.144;14.118;2023-04-07T05:23:30;-3.10;99.90
8332;DHT22;4203;48.144;14.118;2023-04-07T05:25:57;-3.00;99.90
8332;DHT22;4203;48.144;14.118;2023-04-07T05:28:24;-3.00;99.90
8332;DHT22;4203;48.144;14.118;2023-04-07T05:30:53;-2.80;99.90
8332;DHT22;4203;48.144;14.118;2023-04-07T05:33:20;-2.80;99.90
8332;DHT22;4203;48.144;14.118;2023-04-07T05:35:47;-2.80;99.90
8332;DHT22;4203;48.144;14.118;2023-04-07T05:38:14;-2.80;99.90
8332;DHT22;4203;48.144;14.118;2023-04-07T05:40:41;-2.70;99.90
8332;DHT22;4203;48.144;14.118;2023-04-07T05:43:09;-2.60;99.90
8332;DHT22;4203;48.144;14.118;2023-04-07T05:45:36;-2.50;99.90
8332;DHT22;4203;48.144;14.118;2023-04-07T05:48:05;-2.50;99.90
8332;DHT22;4203;48.144;14.118;2023-04-07T05:50:32;-2.30;99.90
8332;DHT22;4203;48.144;14.118;2023-04-07T05:52:59;-2.10;99.90
8332;DHT22;4203;48.144;14.118;2023-04-07T05:55:26;-2.00;99.90
8332;DHT22;4203;48.144;14.118;2023-04-07T05:57:53;-1.80;99.90
8332;DHT22;4203;48.144;14.118;2023-04-07T06:00:21;-1.40;99.90
8332;DHT22;4203;48.144;14.118;2023-04-07T06:02:48;-1.50;99.90
8332;DHT22;4203;48.144;14.118;2023-04-07T06:05:16;-1.40;99.90
8332;DHT22;4203;48.144;14.118;2023-04-07T06:07:43;-1.50;99.90
8332;DHT22;4203;48.144;14.118;2023-04-07T06:10:11;-1.50;99.90
8332;DHT22;4203;48.144;14.118;2023-04-07T06:12:38;-1.40;99.90
8332;DHT22;4203;48.144;14.118;2023-04-07T06:15:06;-1.30;99.90
8332;DHT22;4203;48.144;14.118;2023-04-07T06:17:33;-1.30;99.90
8332;DHT22;4203;48.144;14.118;2023-04-07T06:20:00;-1.30;99.90
8332;DHT22;4203;48.144;14.118;2023-04-07T06:22:29;-1.20;99.90
8332;DHT22;4203;48.144;14.118;2023-04-07T06:24:56;-1.10;99.90
8332;DHT22;4203;48.144;14.118;2023-04-07T06:27:23;-0.90;99.90
8332;DHT22;4203;48.144;14.118;2023-04-07T06:29:50;-0.80;99.90
8332;DHT22;4203;48.144;14.118;2023-04-07T06:32:18;-0.80;99.90
8332;DHT22;4203;48.144;14.118;2023-04-07T06:34:45;-0.70;99.90
8332;DHT22;4203;48.144;14.118;2023-04-07T06:37:12;-0.40;99.90
8332;DHT22;4203;48.144;14.118;2023-04-07T06:39:43;-0.10;99.90
8332;DHT22;4203;48.144;14.118;2023-04-07T06:42:10;0.20;99.90
8332;DHT22;4203;48.144;14.118;2023-04-07T06:44:37;0.40;99.90
8332;DHT22;4203;48.144;14.118;2023-04-07T06:47:04;0.60;99.90
8332;DHT22;4203;48.144;14.118;2023-04-07T06:49:32;0.70;99.90
8332;DHT22;4203;48.144;14.118;2023-04-07T06:51:59;0.70;99.90
8332;DHT22;4203;48.144;14.118;2023-04-07T06:54:26;0.90;99.90
8332;DHT22;4203;48.144;14.118;2023-04-07T06:56:54;1.00;99.90
8332;DHT22;4203;48.144;14.118;2023-04-07T06:59:22;1.20;99.90
8332;DHT22;4203;48.144;14.118;2023-04-07T07:01:49;1.30;99.90
8332;DHT22;4203;48.144;14.118;2023-04-07T07:04:16;1.50;99.90
8332;DHT22;4203;48.144;14.118;2023-04-07T07:06:43;1.60;99.90
8332;DHT22;4203;48.144;14.118;2023-04-07T07:09:10;1.90;99.90
8332;DHT22;4203;48.144;14.118;2023-04-07T07:11:38;2.30;99.90
8332;DHT22;4203;48.144;14.118;2023-04-07T07:14:07;2.70;99.90
8332;DHT22;4203;48.144;14.118;2023-04-07T07:16:34;3.10;99.90
8332;DHT22;4203;48.144;14.118;2023-04-07T07:19:01;3.30;99.90
8332;DHT22;4203;48.144;14.118;2023-04-07T07:21:29;3.60;99.90
8332;DHT22;4203;48.144;14.118;2023-04-07T07:23:56;3.90;99.90
8332;DHT22;4203;48.144;14.118;2023-04-07T07:26:23;4.10;99.90
8332;DHT22;4203;48.144;14.118;2023-04-07T07:28:50;4.20;99.90
8332;DHT22;4203;48.144;14.118;2023-04-07T07:31:19;4.40;99.90
8332;DHT22;4203;48.144;14.118;2023-04-07T07:33:46;4.60;99.90
8332;DHT22;4203;48.144;14.118;2023-04-07T07:36:14;5.00;99.90
8332;DHT22;4203;48.144;14.118;2023-04-07T07:38:41;5.40;99.90
8332;DHT22;4203;48.144;14.118;2023-04-07T07:41:08;5.90;99.90
8332;DHT22;4203;48.144;14.118;2023-04-07T07:43:35;6.30;99.90
8332;DHT22;4203;48.144;14.118;2023-04-07T07:46:02;6.70;99.90
8332;DHT22;4203;48.144;14.118;2023-04-07T07:48:31;7.10;99.90
8332;DHT22;4203;48.144;14.118;2023-04-07T07:50:59;7.20;99.90
8332;DHT22;4203;48.144;14.118;2023-04-07T07:53:26;7.40;99.90
8332;DHT22;4203;48.144;14.118;2023-04-07T07:55:53;7.60;99.90
8332;DHT22;4203;48.144;14.118;2023-04-07T07:58:20;7.80;99.90
8332;DHT22;4203;48.144;14.118;2023-04-07T08:00:47;8.00;99.90
8332;DHT22;4203;48.144;14.118;2023-04-07T08:03:15;8.00;99.90
8332;DHT22;4203;48.144;14.118;2023-04-07T08:05:46;7.80;99.90
8332;DHT22;4203;48.144;14.118;2023-04-07T08:08:14;7.70;99.90
8332;DHT22;4203;48.144;14.118;2023-04-07T08:10:41;7.60;99.90
8332;DHT22;4203;48.144;14.118;2023-04-07T08:13:08;7.70;99.90
8332;DHT22;4203;48.144;14.118;2023-04-07T08:15:35;7.90;99.90
8332;DHT22;4203;48.144;14.118;2023-04-07T08:18:03;8.10;99.90
8332;DHT22;4203;48.144;14.118;2023-04-07T08:20:31;8.40;99.90
8332;DHT22;4203;48.144;14.118;2023-04-07T08:23:00;8.00;99.90
8332;DHT22;4203;48.144;14.118;2023-04-07T08:25:28;8.10;99.90
8332;DHT22;4203;48.144;14.118;2023-04-07T08:27:55;8.70;99.90
8332;DHT22;4203;48.144;14.118;2023-04-07T08:30:22;9.30;99.90
8332;DHT22;4203;48.144;14.118;2023-04-07T08:32:50;9.30;99.90
8332;DHT22;4203;48.144;14.118;2023-04-07T08:35:18;9.50;99.90
8332;DHT22;4203;48.144;14.118;2023-04-07T08:37:45;10.20;99.90
8332;DHT22;4203;48.144;14.118;2023-04-07T08:40:13;10.80;99.90
8332;DHT22;4203;48.144;14.118;2023-04-07T08:42:42;11.60;99.90
8332;DHT22;4203;48.144;14.118;2023-04-07T08:45:12;11.10;99.80
8332;DHT22;4203;48.144;14.118;2023-04-07T08:47:39;11.20;99.90
8332;DHT22;4203;48.144;14.118;2023-04-07T08:50:09;11.90;99.90
8332;DHT22;4203;48.144;14.118;2023-04-07T08:52:43;11.70;99.90
8332;DHT22;4203;48.144;14.118;2023-04-07T08:55:12;11.10;99.90
8332;DHT22;4203;48.144;14.118;2023-04-07T08:57:41;10.80;99.90
8332;DHT22;4203;48.144;14.118;2023-04-07T09:00:09;10.80;99.00
8332;DHT22;4203;48.144;14.118;2023-04-07T09:02:38;10.60;98.00
8332;DHT22;4203;48.144;14.118;2023-04-07T09:05:07;10.30;97.70
8332;DHT22;4203;48.144;14.118;2023-04-07T09:07:35;10.90;99.90
8332;DHT22;4203;48.144;14.118;2023-04-07T09:10:03;12.10;99.90
8332;DHT22;4203;48.144;14.118;2023-04-07T09:12:32;13.40;99.90
8332;DHT22;4203;48.144;14.118;2023-04-07T09:14:59;14.30;99.20
8332;DHT22;4203;48.144;14.118;2023-04-07T09:17:27;15.10;97.20
8332;DHT22;4203;48.144;14.118;2023-04-07T09:19:56;15.60;97.20
8332;DHT22;4203;48.144;14.118;2023-04-07T09:22:37;15.80;89.00
8332;DHT22;4203;48.144;14.118;2023-04-07T09:25:12;15.90;90.60
8332;DHT22;4203;48.144;14.118;2023-04-07T09:27:58;15.30;90.30
8332;DHT22;4203;48.144;14.118;2023-04-07T09:30:27;15.70;94.10
8332;DHT22;4203;48.144;14.118;2023-04-07T09:32:55;16.10;92.60
8332;DHT22;4203;48.144;14.118;2023-04-07T09:35:22;16.70;92.80
8332;DHT22;4203;48.144;14.118;2023-04-07T09:38:05;16.60;83.40
8332;DHT22;4203;48.144;14.118;2023-04-07T09:40:32;16.50;88.60
8332;DHT22;4203;48.144;14.118;2023-04-07T09:43:02;16.90;90.90
8332;DHT22;4203;48.144;14.118;2023-04-07T09:45:30;16.80;82.30
8332;DHT22;4203;48.144;14.118;2023-04-07T09:47:59;15.80;89.00
8332;DHT22;4203;48.144;14.118;2023-04-07T09:50:31;15.50;83.80
8332;DHT22;4203;48.144;14.118;2023-04-07T09:53:00;15.60;84.80
8332;DHT22;4203;48.144;14.118;2023-04-07T09:55:28;16.00;92.50
8332;DHT22;4203;48.144;14.118;2023-04-07T09:57:55;16.20;87.40
8332;DHT22;4203;48.144;14.118;2023-04-07T10:00:25;15.50;84.80
8332;DHT22;4203;48.144;14.118;2023-04-07T10:02:52;15.90;92.00
8332;DHT22;4203;48.144;14.118;2023-04-07T10:05:19;16.70;87.60
8332;DHT22;4203;48.144;14.118;2023-04-07T10:07:47;16.30;83.60
8332;DHT22;4203;48.144;14.118;2023-04-07T10:10:15;15.00;91.30
8332;DHT22;4203;48.144;14.118;2023-04-07T10:12:42;15.50;88.10
8332;DHT22;4203;48.144;14.118;2023-04-07T10:15:12;15.60;87.30
8332;DHT22;4203;48.144;14.118;2023-04-07T10:17:44;15.60;83.90
8332;DHT22;4203;48.144;14.118;2023-04-07T10:20:13;16.50;90.00
8332;DHT22;4203;48.144;14.118;2023-04-07T10:22:41;17.00;82.40
8332;DHT22;4203;48.144;14.118;2023-04-07T10:25:13;17.30;90.30
8332;DHT22;4203;48.144;14.118;2023-04-07T10:27:46;17.70;77.20
8332;DHT22;4203;48.144;14.118;2023-04-07T10:30:19;17.70;77.50
8332;DHT22;4203;48.144;14.118;2023-04-07T10:32:50;17.50;80.30
8332;DHT22;4203;48.144;14.118;2023-04-07T10:35:19;16.50;75.20
8332;DHT22;4203;48.144;14.118;2023-04-07T10:38:08;15.60;67.40
8332;DHT22;4203;48.144;14.118;2023-04-07T10:40:37;16.00;75.90
8332;DHT22;4203;48.144;14.118;2023-04-07T10:43:05;15.70;80.00
8332;DHT22;4203;48.144;14.118;2023-04-07T10:45:56;15.80;83.70
8332;DHT22;4203;48.144;14.118;2023-04-07T10:48:27;16.90;88.30
8332;DHT22;4203;48.144;14.118;2023-04-07T10:51:21;18.20;82.60
8332;DHT22;4203;48.144;14.118;2023-04-07T10:54:22;19.10;78.60
8332;DHT22;4203;48.144;14.118;2023-04-07T10:57:06;18.80;69.00
8332;DHT22;4203;48.144;14.118;2023-04-07T10:59:36;19.10;84.50
8332;DHT22;4203;48.144;14.118;2023-04-07T11:02:31;19.80;69.50
8332;DHT22;4203;48.144;14.118;2023-04-07T11:05:01;18.80;65.10
8332;DHT22;4203;48.144;14.118;2023-04-07T11:07:49;19.00;78.90
8332;DHT22;4203;48.144;14.118;2023-04-07T11:10:17;20.20;77.90
8332;DHT22;4203;48.144;14.118;2023-04-07T11:13:04;20.90;79.10
8332;DHT22;4203;48.144;14.118;2023-04-07T11:15:33;21.50;71.10
8332;DHT22;4203;48.144;14.118;2023-04-07T11:18:13;21.30;60.50
8332;DHT22;4203;48.144;14.118;2023-04-07T11:20:46;20.90;67.20
8332;DHT22;4203;48.144;14.118;2023-04-07T11:23:14;19.50;61.80
8332;DHT22;4203;48.144;14.118;2023-04-07T11:25:44;17.90;65.00
8332;DHT22;4203;48.144;14.118;2023-04-07T11:28:12;17.90;61.10
8332;DHT22;4203;48.144;14.118;2023-04-07T11:30:45;17.60;63.30
8332;DHT22;4203;48.144;14.118;2023-04-07T11:33:15;16.60;69.10
8332;DHT22;4203;48.144;14.118;2023-04-07T11:35:49;16.10;68.50
8332;DHT22;4203;48.144;14.118;2023-04-07T11:38:17;15.90;68.50
8332;DHT22;4203;48.144;14.118;2023-04-07T11:40:44;16.60;68.70
8332;DHT22;4203;48.144;14.118;2023-04-07T11:43:16;17.10;74.70
8332;DHT22;4203;48.144;14.118;2023-04-07T11:45:43;18.10;63.10
8332;DHT22;4203;48.144;14.118;2023-04-07T11:48:27;19.00;62.70
8332;DHT22;4203;48.144;14.118;2023-04-07T11:50:56;19.80;70.40
8332;DHT22;4203;48.144;14.118;2023-04-07T11:53:27;20.40;61.60
8332;DHT22;4203;48.144;14.118;2023-04-07T11:56:02;20.10;66.30
8332;DHT22;4203;48.144;14.118;2023-04-07T11:58:29;20.60;63.60
8332;DHT22;4203;48.144;14.118;2023-04-07T12:00:57;21.20;71.70
8332;DHT22;4203;48.144;14.118;2023-04-07T12:03:30;21.70;73.30
8332;DHT22;4203;48.144;14.118;2023-04-07T12:05:59;21.80;64.70
8332;DHT22;4203;48.144;14.118;2023-04-07T12:08:37;21.40;65.50
8332;DHT22;4203;48.144;14.118;2023-04-07T12:11:05;21.30;67.10
8332;DHT22;4203;48.144;14.118;2023-04-07T12:13:32;21.10;67.20
8332;DHT22;4203;48.144;14.118;2023-04-07T12:16:00;21.10;69.40
8332;DHT22;4203;48.144;14.118;2023-04-07T12:18:28;21.30;71.60
8332;DHT22;4203;48.144;14.118;2023-04-07T12:20:55;21.20;71.60
8332;DHT22;4203;48.144;14.118;2023-04-07T12:23:25;20.50;60.80
8332;DHT22;4203;48.144;14.118;2023-04-07T12:25:52;20.30;67.00
8332;DHT22;4203;48.144;14.118;2023-04-07T12:28:19;20.40;70.70
8332;DHT22;4203;48.144;14.118;2023-04-07T12:30:46;20.40;66.50
8332;DHT22;4203;48.144;14.118;2023-04-07T12:33:14;20.50;71.30
8332;DHT22;4203;48.144;14.118;2023-04-07T12:35:41;20.60;71.40
8332;DHT22;4203;48.144;14.118;2023-04-07T12:38:08;20.40;65.70
8332;DHT22;4203;48.144;14.118;2023-04-07T12:40:37;20.40;66.90
8332;DHT22;4203;48.144;14.118;2023-04-07T12:43:05;20.50;68.10
8332;DHT22;4203;48.144;14.118;2023-04-07T12:45:32;20.70;61.70
8332;DHT22;4203;48.144;14.118;2023-04-07T12:47:59;20.80;71.00
8332;DHT22;4203;48.144;14.118;2023-04-07T12:50:26;21.00;65.70
8332;DHT22;4203;48.144;14.118;2023-04-07T12:52:54;20.40;64.60
8332;DHT22;4203;48.144;14.118;2023-04-07T12:55:21;19.50;60.60
8332;DHT22;4203;48.144;14.118;2023-04-07T12:57:49;19.10;61.60
8332;DHT22;4203;48.144;14.118;2023-04-07T13:00:17;19.20;63.20
8332;DHT22;4203;48.144;14.118;2023-04-07T13:02:44;19.50;69.60
8332;DHT22;4203;48.144;14.118;2023-04-07T13:05:11;20.00;60.40
8332;DHT22;4203;48.144;14.118;2023-04-07T13:07:38;19.90;63.70
8332;DHT22;4203;48.144;14.118;2023-04-07T13:10:07;19.30;61.20
8332;DHT22;4203;48.144;14.118;2023-04-07T13:12:34;18.00;64.00
8332;DHT22;4203;48.144;14.118;2023-04-07T13:15:05;17.10;63.40
8332;DHT22;4203;48.144;14.118;2023-04-07T13:17:32;16.70;62.10
8332;DHT22;4203;48.144;14.118;2023-04-07T13:20:01;17.30;66.30
8332;DHT22;4203;48.144;14.118;2023-04-07T13:22:29;17.50;67.50
8332;DHT22;4203;48.144;14.118;2023-04-07T13:24:56;17.90;69.10
8332;DHT22;4203;48.144;14.118;2023-04-07T13:27:23;17.70;59.30
8332;DHT22;4203;48.144;14.118;2023-04-07T13:29:50;17.80;69.20
8332;DHT22;4203;48.144;14.118;2023-04-07T13:32:20;18.20;64.30
8332;DHT22;4203;48.144;14.118;2023-04-07T13:34:48;18.60;70.10
8332;DHT22;4203;48.144;14.118;2023-04-07T13:37:15;19.00;67.30
8332;DHT22;4203;48.144;14.118;2023-04-07T13:39:44;18.70;64.20
8332;DHT22;4203;48.144;14.118;2023-04-07T13:42:12;18.80;67.50
8332;DHT22;4203;48.144;14.118;2023-04-07T13:44:41;19.20;67.70
8332;DHT22;4203;48.144;14.118;2023-04-07T13:47:10;19.50;64.30
8332;DHT22;4203;48.144;14.118;2023-04-07T13:49:40;19.10;59.80
8332;DHT22;4203;48.144;14.118;2023-04-07T13:52:08;18.70;58.30
8332;DHT22;4203;48.144;14.118;2023-04-07T13:54:35;18.70;65.50
8332;DHT22;4203;48.144;14.118;2023-04-07T13:57:03;18.80;67.00
8332;DHT22;4203;48.144;14.118;2023-04-07T13:59:30;18.70;65.20
8332;DHT22;4203;48.144;14.118;2023-04-07T14:01:59;18.80;62.00
8332;DHT22;4203;48.144;14.118;2023-04-07T14:04:26;18.80;65.70
8332;DHT22;4203;48.144;14.118;2023-04-07T14:06:55;18.80;67.60
8332;DHT22;4203;48.144;14.118;2023-04-07T14:09:22;18.60;67.80
8332;DHT22;4203;48.144;14.118;2023-04-07T14:11:49;18.50;65.70
8332;DHT22;4203;48.144;14.118;2023-04-07T14:14:17;18.30;63.30
8332;DHT22;4203;48.144;14.118;2023-04-07T14:16:44;18.50;69.40
8332;DHT22;4203;48.144;14.118;2023-04-07T14:19:11;18.70;63.90
8332;DHT22;4203;48.144;14.118;2023-04-07T14:21:38;18.80;62.20
8332;DHT22;4203;48.144;14.118;2023-04-07T14:24:06;18.80;62.00
8332;DHT22;4203;48.144;14.118;2023-04-07T14:26:33;18.80;65.20
8332;DHT22;4203;48.144;14.118;2023-04-07T14:29:01;18.80;62.20
8332;DHT22;4203;48.144;14.118;2023-04-07T14:31:28;18.30;62.00
8332;DHT22;4203;48.144;14.118;2023-04-07T14:33:55;17.80;68.00
8332;DHT22;4203;48.144;14.118;2023-04-07T14:36:22;17.80;68.10
8332;DHT22;4203;48.144;14.118;2023-04-07T14:38:49;17.80;65.90
8332;DHT22;4203;48.144;14.118;2023-04-07T14:41:19;17.80;66.30
8332;DHT22;4203;48.144;14.118;2023-04-07T14:43:46;17.80;65.60
8332;DHT22;4203;48.144;14.118;2023-04-07T14:46:16;17.80;61.40
8332;DHT22;4203;48.144;14.118;2023-04-07T14:48:44;17.70;61.90
8332;DHT22;4203;48.144;14.118;2023-04-07T14:51:12;17.50;63.70
8332;DHT22;4203;48.144;14.118;2023-04-07T14:53:39;17.30;63.00
8332;DHT22;4203;48.144;14.118;2023-04-07T14:56:08;17.10;65.20
8332;DHT22;4203;48.144;14.118;2023-04-07T14:58:36;16.90;62.40
8332;DHT22;4203;48.144;14.118;2023-04-07T15:01:05;16.90;62.50
8332;DHT22;4203;48.144;14.118;2023-04-07T15:03:32;16.90;66.20
8332;DHT22;4203;48.144;14.118;2023-04-07T15:06:00;16.80;66.10
8332;DHT22;4203;48.144;14.118;2023-04-07T15:08:27;16.60;62.40
8332;DHT22;4203;48.144;14.118;2023-04-07T15:10:54;16.50;66.00
8332;DHT22;4203;48.144;14.118;2023-04-07T15:13:21;16.50;66.70
8332;DHT22;4203;48.144;14.118;2023-04-07T15:15:50;16.40;64.10
8332;DHT22;4203;48.144;14.118;2023-04-07T15:18:17;16.30;64.50
8332;DHT22;4203;48.144;14.118;2023-04-07T15:20:44;16.20;67.00
8332;DHT22;4203;48.144;14.118;2023-04-07T15:23:11;16.00;65.60
8332;DHT22;4203;48.144;14.118;2023-04-07T15:25:39;15.90;65.10
8332;DHT22;4203;48.144;14.118;2023-04-07T15:28:06;15.70;61.50
8332;DHT22;4203;48.144;14.118;2023-04-07T15:30:34;15.50;66.20
8332;DHT22;4203;48.144;14.118;2023-04-07T15:33:03;15.50;60.90
8332;DHT22;4203;48.144;14.118;2023-04-07T15:35:30;15.30;63.30
8332;DHT22;4203;48.144;14.118;2023-04-07T15:37:57;15.30;62.70
8332;DHT22;4203;48.144;14.118;2023-04-07T15:40:24;15.10;60.10
8332;DHT22;4203;48.144;14.118;2023-04-07T15:42:52;15.00;59.90
8332;DHT22;4203;48.144;14.118;2023-04-07T15:45:19;15.00;60.00
8332;DHT22;4203;48.144;14.118;2023-04-07T15:47:46;15.10;62.90
8332;DHT22;4203;48.144;14.118;2023-04-07T15:50:15;15.00;64.20
8332;DHT22;4203;48.144;14.118;2023-04-07T15:52:42;15.00;65.40
8332;DHT22;4203;48.144;14.118;2023-04-07T15:55:09;15.00;66.50
8332;DHT22;4203;48.144;14.118;2023-04-07T15:57:36;15.00;64.70
8332;DHT22;4203;48.144;14.118;2023-04-07T16:00:04;15.00;65.10